createdAt,value
2023-05-05T00:00:12.416Z,155.34
2023-05-05T00:01:12.471Z,156.98
2023-05-05T00:02:12.510Z,155.96
2023-05-05T00:03:12.678Z,154.42
2023-05-05T00:04:12.602Z,154.74
2023-05-05T00:05:12.623Z,154.48
2023-05-05T00:06:12.639Z,152.93
2023-05-05T00:07:12.645Z,154.99
2023-05-05T00:08:12.671Z,153.55
2023-05-05T00:09:12.692Z,154.92
2023-05-05T00:10:12.763Z,153.94
2023-05-05T00:11:12.780Z,152.92
2023-05-05T00:12:12.734Z,153.02
2023-05-05T00:13:12.900Z,152.92
2023-05-05T00:14:12.776Z,154.04
2023-05-05T00:15:12.779Z,153.18
2023-05-05T00:16:12.814Z,152.67
2023-05-05T00:17:12.904Z,154.66
2023-05-05T00:18:12.932Z,152.29
2023-05-05T00:19:12.927Z,153.14
2023-05-05T00:20:12.949Z,153.02
2023-05-05T00:21:12.968Z,152.14
2023-05-05T00:22:13.011Z,154.24
2023-05-05T00:23:13.035Z,153.43
2023-05-05T00:24:13.065Z,151.80
2023-05-05T00:25:13.116Z,152.89
2023-05-05T00:26:13.116Z,157.27
2023-05-05T00:27:13.133Z,153.44
2023-05-05T00:28:13.141Z,152.55
2023-05-05T00:29:13.168Z,152.42
2023-05-05T00:30:13.157Z,152.08
2023-05-05T00:31:13.193Z,154.02
2023-05-05T00:32:13.179Z,152.79
2023-05-05T00:33:13.169Z,151.07
2023-05-05T00:34:13.246Z,151.37
2023-05-05T00:35:13.197Z,153.36
2023-05-05T00:36:13.207Z,153.57
2023-05-05T00:37:13.264Z,151.38
2023-05-05T00:38:13.237Z,150.72
2023-05-05T00:39:13.267Z,153.13
2023-05-05T00:40:13.266Z,153.63
2023-05-05T00:41:13.297Z,153.19
2023-05-05T00:42:13.301Z,153.18
2023-05-05T00:43:13.321Z,152.52
2023-05-05T00:44:13.343Z,151.81
2023-05-05T00:45:13.358Z,151.88
2023-05-05T00:46:13.398Z,150.82
2023-05-05T00:47:13.433Z,152.82
2023-05-05T00:48:13.421Z,151.54
2023-05-05T00:49:13.511Z,149.45
2023-05-05T00:50:13.496Z,151.38
2023-05-05T00:51:13.547Z,150.52
2023-05-05T00:52:13.651Z,153.40
2023-05-05T00:53:13.620Z,151.95
2023-05-05T00:54:13.615Z,150.30
2023-05-05T00:55:13.667Z,151.89
2023-05-05T00:56:13.633Z,150.11
2023-05-05T00:57:13.719Z,150.62
2023-05-05T00:58:13.720Z,149.69
2023-05-05T00:59:13.752Z,152.27
2023-05-05T01:00:13.740Z,152.02
2023-05-05T01:01:13.768Z,151.61
2023-05-05T01:02:13.802Z,149.52
2023-05-05T01:03:13.880Z,149.52
2023-05-05T01:04:13.841Z,152.36
2023-05-05T01:05:13.863Z,151.97
2023-05-05T01:06:13.858Z,151.06
2023-05-05T01:07:13.897Z,148.59
2023-05-05T01:08:13.862Z,150.58
2023-05-05T01:09:13.886Z,150.04
2023-05-05T01:10:20.212Z,150.01
2023-05-05T01:11:14.879Z,150.21
2023-05-05T01:12:13.881Z,150.33
2023-05-05T01:13:13.970Z,149.22
2023-05-05T01:14:13.858Z,148.63
2023-05-05T01:15:13.847Z,149.26
2023-05-05T01:16:13.878Z,149.00
2023-05-05T01:17:13.888Z,148.16
2023-05-05T01:18:13.836Z,150.79
2023-05-05T01:19:13.836Z,149.92
2023-05-05T01:20:13.814Z,147.46
2023-05-05T01:21:13.835Z,150.05
2023-05-05T01:22:13.798Z,149.67
2023-05-05T01:23:13.820Z,148.12
2023-05-05T01:24:13.804Z,149.51
2023-05-05T01:25:13.775Z,148.47
2023-05-05T01:26:13.792Z,150.59
2023-05-05T01:27:13.802Z,147.47
2023-05-05T01:28:13.771Z,148.83
2023-05-05T01:29:13.852Z,147.97
2023-05-05T01:30:13.911Z,149.73
2023-05-05T01:31:13.972Z,146.08
2023-05-05T01:32:13.989Z,147.92
2023-05-05T01:33:14.046Z,148.31
2023-05-05T01:34:14.087Z,147.28
2023-05-05T01:35:14.139Z,146.09
2023-05-05T01:36:14.179Z,149.81
2023-05-05T01:37:14.648Z,147.01
2023-05-05T01:38:14.250Z,146.77
2023-05-05T01:39:14.320Z,148.85
2023-05-05T01:40:14.360Z,149.94
2023-05-05T01:41:14.413Z,146.41
2023-05-05T01:42:14.440Z,146.60
2023-05-05T01:43:14.492Z,148.15
2023-05-05T01:44:14.555Z,146.37
2023-05-05T01:45:14.591Z,145.33
2023-05-05T01:46:14.777Z,146.87
2023-05-05T01:47:14.681Z,147.20
2023-05-05T01:48:14.731Z,147.93
2023-05-05T01:49:14.765Z,146.16
2023-05-05T01:50:14.805Z,145.19
2023-05-05T01:51:14.864Z,147.37
2023-05-05T01:52:14.923Z,146.98
2023-05-05T01:53:14.943Z,143.25
2023-05-05T01:54:14.966Z,144.69
2023-05-05T01:55:14.997Z,144.64
2023-05-05T01:56:15.061Z,145.80
2023-05-05T01:57:15.066Z,144.84
2023-05-05T01:58:15.111Z,144.53
2023-05-05T01:59:15.125Z,142.92
2023-05-05T02:00:15.182Z,146.37
2023-05-05T02:01:15.214Z,146.38
2023-05-05T02:02:15.299Z,144.83
2023-05-05T02:03:15.370Z,143.67
2023-05-05T02:04:15.353Z,145.09
2023-05-05T02:05:15.402Z,144.85
2023-05-05T02:06:15.460Z,143.08
2023-05-05T02:07:15.504Z,144.14
2023-05-05T02:08:15.574Z,144.75
2023-05-05T02:09:15.584Z,144.03
2023-05-05T02:10:15.614Z,146.53
2023-05-05T02:11:15.682Z,145.01
2023-05-05T02:12:15.714Z,145.29
2023-05-05T02:13:15.868Z,144.10
2023-05-05T02:14:15.791Z,144.11
2023-05-05T02:15:15.877Z,144.48
2023-05-05T02:16:15.934Z,143.62
2023-05-05T02:17:15.903Z,143.95
2023-05-05T02:18:15.909Z,144.46
2023-05-05T02:19:15.981Z,142.37
2023-05-05T02:20:15.985Z,143.65
2023-05-05T02:21:16.040Z,144.08
2023-05-05T02:22:16.021Z,142.67
2023-05-05T02:23:16.067Z,143.21
2023-05-05T02:24:16.063Z,142.72
2023-05-05T02:25:16.010Z,141.78
2023-05-05T02:26:16.066Z,143.44
2023-05-05T02:27:16.032Z,142.09
2023-05-05T02:28:16.031Z,143.00
2023-05-05T02:29:16.027Z,141.02
2023-05-05T02:30:16.036Z,141.48
2023-05-05T02:31:16.071Z,138.78
2023-05-05T02:32:16.003Z,142.99
2023-05-05T02:33:16.017Z,142.82
2023-05-05T02:34:16.013Z,140.94
2023-05-05T02:35:16.068Z,140.87
2023-05-05T02:36:16.003Z,143.05
2023-05-05T02:37:16.001Z,140.71
2023-05-05T02:38:15.985Z,141.40
2023-05-05T02:39:15.998Z,139.74
2023-05-05T02:40:15.980Z,144.20
2023-05-05T02:41:15.966Z,140.57
2023-05-05T02:42:15.974Z,140.59
2023-05-05T02:43:15.982Z,141.88
2023-05-05T02:44:15.970Z,139.55
2023-05-05T02:45:15.959Z,138.19
2023-05-05T02:46:16.215Z,139.16
2023-05-05T02:47:15.968Z,143.19
2023-05-05T02:48:15.971Z,138.49
2023-05-05T02:49:15.927Z,141.02
2023-05-05T02:50:15.965Z,137.57
2023-05-05T02:51:15.925Z,137.75
2023-05-05T02:52:15.932Z,137.70
2023-05-05T02:53:15.934Z,138.86
2023-05-05T02:54:15.978Z,141.07
2023-05-05T02:55:15.925Z,138.62
2023-05-05T02:56:15.912Z,138.11
2023-05-05T02:57:15.925Z,139.14
2023-05-05T02:58:15.943Z,137.76
2023-05-05T02:59:16.469Z,139.20
2023-05-05T03:00:15.991Z,139.49
2023-05-05T03:01:16.084Z,137.65
2023-05-05T03:02:16.171Z,139.58
2023-05-05T03:03:16.181Z,139.98
2023-05-05T03:04:16.106Z,137.91
2023-05-05T03:05:16.131Z,138.54
2023-05-05T03:06:16.166Z,137.69
2023-05-05T03:07:16.156Z,136.83
2023-05-05T03:08:16.214Z,137.06
2023-05-05T03:09:16.192Z,140.05
2023-05-05T03:10:16.239Z,137.90
2023-05-05T03:11:16.180Z,139.01
2023-05-05T03:12:16.219Z,136.58
2023-05-05T03:13:16.221Z,136.18
2023-05-05T03:14:16.185Z,137.36
2023-05-05T03:15:16.210Z,136.27
2023-05-05T03:16:16.212Z,138.98
2023-05-05T03:17:16.191Z,135.46
2023-05-05T03:18:16.212Z,136.61
2023-05-05T03:19:16.173Z,136.49
2023-05-05T03:20:16.214Z,136.18
2023-05-05T03:21:16.163Z,136.73
2023-05-05T03:22:16.176Z,135.38
2023-05-05T03:23:16.198Z,137.42
2023-05-05T03:24:16.161Z,135.78
2023-05-05T03:25:16.185Z,141.62
2023-05-05T03:26:16.188Z,136.03
2023-05-05T03:27:16.175Z,135.25
2023-05-05T03:28:16.190Z,138.28
2023-05-05T03:29:16.209Z,136.16
2023-05-05T03:30:16.168Z,135.54
2023-05-05T03:31:16.196Z,134.78
2023-05-05T03:32:16.145Z,136.93
2023-05-05T03:33:16.203Z,135.74
2023-05-05T03:34:16.165Z,133.54
2023-05-05T03:35:16.166Z,134.61
2023-05-05T03:36:16.186Z,133.41
2023-05-05T03:37:16.164Z,135.95
2023-05-05T03:38:16.172Z,133.07
2023-05-05T03:39:16.184Z,136.80
2023-05-05T03:40:16.161Z,136.68
2023-05-05T03:41:16.192Z,133.98
2023-05-05T03:42:16.192Z,134.49
2023-05-05T03:43:16.159Z,136.82
2023-05-05T03:44:16.151Z,132.49
2023-05-05T03:45:16.149Z,134.38
2023-05-05T03:46:16.315Z,132.69
2023-05-05T03:47:16.180Z,135.30
2023-05-05T03:48:16.136Z,135.44
2023-05-05T03:49:16.147Z,133.39
2023-05-05T03:50:16.138Z,131.85
2023-05-05T03:51:16.158Z,133.76
2023-05-05T03:52:16.169Z,132.19
2023-05-05T03:53:16.160Z,131.64
2023-05-05T03:54:16.170Z,132.62
2023-05-05T03:55:16.167Z,136.12
2023-05-05T03:56:16.168Z,134.93
2023-05-05T03:57:16.180Z,135.85
2023-05-05T03:58:16.242Z,132.21
2023-05-05T03:59:16.251Z,132.58
2023-05-05T04:00:16.328Z,136.06
2023-05-05T04:01:16.338Z,135.09
2023-05-05T04:02:18.381Z,130.38
2023-05-05T04:03:16.509Z,133.57
2023-05-05T04:04:16.412Z,131.24
2023-05-05T04:05:16.360Z,132.41
2023-05-05T04:06:16.349Z,132.89
2023-05-05T04:07:16.306Z,131.33
2023-05-05T04:08:16.384Z,130.85
2023-05-05T04:09:16.339Z,134.73
2023-05-05T04:10:16.305Z,131.82
2023-05-05T04:11:16.290Z,132.75
2023-05-05T04:12:16.297Z,132.44
2023-05-05T04:13:16.415Z,131.23
2023-05-05T04:14:16.322Z,131.57
2023-05-05T04:15:16.307Z,132.51
2023-05-05T04:16:16.355Z,131.17
2023-05-05T04:17:16.334Z,130.88
2023-05-05T04:18:16.337Z,131.41
2023-05-05T04:19:16.343Z,132.22
2023-05-05T04:20:16.408Z,129.88
2023-05-05T04:21:16.375Z,133.13
2023-05-05T04:22:16.383Z,132.00
2023-05-05T04:23:16.491Z,131.36
2023-05-05T04:24:16.431Z,128.16
2023-05-05T04:25:16.447Z,129.25
2023-05-05T04:26:16.445Z,130.48
2023-05-05T04:27:16.442Z,133.23
2023-05-05T04:28:16.518Z,131.80
2023-05-05T04:29:16.511Z,130.57
2023-05-05T04:30:16.514Z,128.28
2023-05-05T04:31:16.594Z,129.89
2023-05-05T04:32:16.570Z,130.73
2023-05-05T04:33:16.581Z,127.94
2023-05-05T04:34:16.617Z,130.30
2023-05-05T04:35:16.577Z,130.23
2023-05-05T04:36:16.605Z,130.15
2023-05-05T04:37:16.727Z,128.99
2023-05-05T04:38:16.782Z,131.76
2023-05-05T04:39:16.709Z,130.32
2023-05-05T04:40:16.727Z,129.94
2023-05-05T04:41:16.742Z,130.45
2023-05-05T04:42:16.714Z,128.68
2023-05-05T04:43:16.726Z,127.17
2023-05-05T04:44:16.751Z,128.72
2023-05-05T04:45:16.766Z,128.67
2023-05-05T04:46:16.867Z,128.55
2023-05-05T04:47:16.845Z,129.78
2023-05-05T04:48:16.909Z,126.66
2023-05-05T04:49:16.924Z,127.85
2023-05-05T04:50:16.961Z,129.79
2023-05-05T04:51:17.025Z,127.72
2023-05-05T04:52:17.043Z,129.51
2023-05-05T04:53:17.089Z,125.92
2023-05-05T04:54:17.133Z,127.94
2023-05-05T04:55:17.157Z,129.17
2023-05-05T04:56:17.256Z,127.58
2023-05-05T04:57:17.225Z,125.55
2023-05-05T04:58:17.305Z,126.29
2023-05-05T04:59:17.331Z,127.07
2023-05-05T05:00:17.365Z,124.51
2023-05-05T05:01:17.324Z,123.19
2023-05-05T05:02:17.401Z,126.15
2023-05-05T05:03:17.545Z,128.13
2023-05-05T05:04:17.378Z,125.62
2023-05-05T05:05:17.379Z,125.72
2023-05-05T05:06:17.354Z,125.40
2023-05-05T05:07:17.354Z,125.19
2023-05-05T05:08:17.379Z,128.68
2023-05-05T05:09:17.370Z,125.81
2023-05-05T05:10:17.345Z,124.57
2023-05-05T05:11:17.344Z,122.81
2023-05-05T05:12:17.330Z,125.96
2023-05-05T05:13:17.395Z,124.92
2023-05-05T05:14:17.338Z,124.14
2023-05-05T05:15:17.332Z,123.36
2023-05-05T05:16:17.354Z,123.33
2023-05-05T05:17:17.310Z,123.26
2023-05-05T05:18:17.462Z,123.89
2023-05-05T05:19:17.318Z,124.05
2023-05-05T05:20:17.313Z,121.22
2023-05-05T05:21:17.369Z,124.00
2023-05-05T05:22:17.387Z,121.47
2023-05-05T05:23:17.390Z,123.45
2023-05-05T05:24:17.393Z,122.97
2023-05-05T05:25:17.401Z,122.03
2023-05-05T05:26:17.439Z,122.38
2023-05-05T05:27:17.449Z,123.22
2023-05-05T05:28:17.424Z,121.62
2023-05-05T05:29:17.503Z,123.69
2023-05-05T05:30:17.436Z,124.93
2023-05-05T05:31:17.738Z,121.35
2023-05-05T05:32:17.466Z,123.01
2023-05-05T05:33:17.581Z,124.48
2023-05-05T05:34:17.665Z,122.72
2023-05-05T05:35:17.444Z,115.77
2023-05-05T05:36:17.459Z,118.20
2023-05-05T05:37:17.448Z,114.76
2023-05-05T05:38:17.459Z,116.83
2023-05-05T05:39:17.581Z,119.09
2023-05-05T05:40:17.466Z,122.93
2023-05-05T05:41:17.458Z,123.79
2023-05-05T05:42:17.534Z,130.15
2023-05-05T05:43:17.651Z,138.48
2023-05-05T05:44:17.557Z,150.22
2023-05-05T05:45:17.633Z,164.20
2023-05-05T05:46:18.315Z,165.35
2023-05-05T05:47:17.676Z,164.07
2023-05-05T05:48:17.676Z,173.18
2023-05-05T05:49:17.757Z,176.72
2023-05-05T05:50:17.804Z,195.06
2023-05-05T05:51:17.933Z,190.73
2023-05-05T05:52:18.045Z,196.91
2023-05-05T05:53:17.987Z,199.38
2023-05-05T05:54:18.049Z,213.00
2023-05-05T05:55:18.110Z,213.79
2023-05-05T05:56:18.118Z,222.48
2023-05-05T05:57:18.161Z,229.62
2023-05-05T05:58:18.224Z,232.79
2023-05-05T05:59:18.239Z,245.08
2023-05-05T06:00:18.321Z,248.14
2023-05-05T06:01:18.417Z,249.88
2023-05-05T06:02:18.413Z,248.65
2023-05-05T06:03:18.671Z,250.00
2023-05-05T06:04:18.506Z,249.28
2023-05-05T06:05:18.513Z,248.28
2023-05-05T06:06:18.728Z,249.12
2023-05-05T06:07:18.875Z,248.17
2023-05-05T06:08:19.223Z,250.00
2023-05-05T06:09:18.633Z,249.43
2023-05-05T06:10:28.098Z,248.41
2023-05-05T06:11:19.635Z,248.65
2023-05-05T06:12:18.585Z,249.37
2023-05-05T06:13:18.613Z,250.94
2023-05-05T06:14:20.119Z,251.38
2023-05-05T06:15:18.592Z,247.54
2023-05-05T06:16:18.591Z,244.46
2023-05-05T06:17:18.601Z,241.83
2023-05-05T06:18:18.635Z,237.98
2023-05-05T06:19:18.611Z,232.44
2023-05-05T06:20:18.558Z,219.56
2023-05-05T06:21:18.552Z,208.73
2023-05-05T06:22:18.508Z,199.58
2023-05-05T06:23:18.604Z,195.69
2023-05-05T06:24:18.507Z,202.21
2023-05-05T06:25:18.555Z,195.96
2023-05-05T06:26:18.531Z,195.21
2023-05-05T06:27:18.515Z,191.37
2023-05-05T06:28:18.848Z,190.46
2023-05-05T06:29:18.598Z,187.10
2023-05-05T06:30:18.473Z,183.48
2023-05-05T06:31:18.476Z,178.46
2023-05-05T06:32:18.459Z,175.30
2023-05-05T06:33:18.497Z,173.18
2023-05-05T06:34:18.456Z,171.15
2023-05-05T06:35:18.432Z,160.26
2023-05-05T06:36:18.463Z,102.00
2023-05-05T06:37:18.445Z,67.83
2023-05-05T06:38:18.829Z,72.62
2023-05-05T06:39:18.526Z,69.92
2023-05-05T06:40:18.544Z,77.42
2023-05-05T06:41:18.593Z,64.87
2023-05-05T06:42:18.644Z,59.06
2023-05-05T06:43:18.685Z,47.08
2023-05-05T06:44:18.900Z,41.66
2023-05-05T06:45:18.739Z,34.99
2023-05-05T06:46:18.902Z,25.33
2023-05-05T06:47:19.765Z,25.11
2023-05-05T06:48:18.906Z,25.00
2023-05-05T06:49:18.977Z,28.09
2023-05-05T06:50:21.769Z,29.55
2023-05-05T06:51:19.015Z,25.00
2023-05-05T06:52:19.031Z,26.14
2023-05-05T06:53:19.150Z,27.64
2023-05-05T06:54:18.995Z,27.20
2023-05-05T06:55:18.985Z,25.56
2023-05-05T06:56:18.956Z,27.54
2023-05-05T06:57:18.995Z,25.08
2023-05-05T06:58:18.944Z,27.89
2023-05-05T06:59:18.962Z,28.65
2023-05-05T07:00:19.030Z,25.50
2023-05-05T07:01:19.039Z,25.00
2023-05-05T07:02:18.959Z,25.24
2023-05-05T07:03:19.120Z,24.44
2023-05-05T07:04:19.070Z,25.92
2023-05-05T07:05:18.944Z,28.44
2023-05-05T07:06:18.894Z,25.82
2023-05-05T07:07:18.906Z,26.47
2023-05-05T07:08:18.977Z,25.00
2023-05-05T07:09:19.133Z,26.54
2023-05-05T07:10:18.976Z,26.56
2023-05-05T07:11:18.948Z,27.22
2023-05-05T07:12:19.072Z,29.46
2023-05-05T07:13:18.899Z,25.43
2023-05-05T07:14:20.575Z,21.02
2023-05-05T07:15:27.490Z,15.98
2023-05-05T07:16:20.265Z,13.38
2023-05-05T07:17:19.107Z,11.93
2023-05-05T07:18:19.108Z,5.18
2023-05-05T07:19:19.138Z,0.00
2023-05-05T07:20:19.042Z,0.00
2023-05-05T07:21:19.075Z,5.53
2023-05-05T07:22:19.054Z,18.28
2023-05-05T07:23:19.007Z,25.00
2023-05-05T07:24:19.027Z,25.81
2023-05-05T07:25:19.163Z,25.00
2023-05-05T07:26:19.132Z,25.75
2023-05-05T07:27:19.120Z,25.11
2023-05-05T07:28:19.156Z,26.29
2023-05-05T07:29:19.272Z,27.57
2023-05-05T07:30:19.705Z,29.44
2023-05-05T07:31:19.335Z,36.07
2023-05-05T07:32:19.437Z,34.67
2023-05-05T07:33:19.283Z,35.13
2023-05-05T07:34:19.780Z,42.95
2023-05-05T07:35:19.334Z,36.33
2023-05-05T07:36:19.337Z,40.72
2023-05-05T07:37:19.354Z,45.70
2023-05-05T07:38:19.437Z,65.01
2023-05-05T07:39:19.426Z,80.62
2023-05-05T07:40:19.483Z,83.28
2023-05-05T07:41:19.601Z,88.81
2023-05-05T07:42:19.926Z,96.74
2023-05-05T07:43:19.754Z,98.00
2023-05-05T07:44:19.761Z,99.58
2023-05-05T07:45:19.826Z,104.54
2023-05-05T07:46:19.867Z,106.25
2023-05-05T07:47:20.081Z,107.51
2023-05-05T07:48:19.896Z,118.82
2023-05-05T07:49:19.924Z,129.36
2023-05-05T07:50:20.065Z,121.45
2023-05-05T07:51:20.139Z,118.43
2023-05-05T07:52:25.231Z,110.30
2023-05-05T07:53:20.984Z,107.33
2023-05-05T07:54:20.036Z,110.55
2023-05-05T07:55:20.008Z,110.53
2023-05-05T07:56:21.651Z,111.00
2023-05-05T07:57:20.199Z,110.44
2023-05-05T07:58:19.968Z,113.88
2023-05-05T07:59:19.965Z,116.15
2023-05-05T08:00:19.945Z,114.60
2023-05-05T08:01:19.955Z,116.36
2023-05-05T08:02:19.943Z,117.55
2023-05-05T08:03:20.118Z,121.89
2023-05-05T08:04:19.998Z,126.36
2023-05-05T08:05:19.953Z,128.73
2023-05-05T08:06:19.888Z,132.58
2023-05-05T08:07:19.902Z,137.22
2023-05-05T08:08:19.886Z,143.39
2023-05-05T08:09:19.904Z,146.61
2023-05-05T08:10:19.864Z,150.14
2023-05-05T08:11:19.853Z,154.16
2023-05-05T08:12:19.881Z,157.30
2023-05-05T08:13:20.009Z,161.82
2023-05-05T08:14:19.866Z,166.01
2023-05-05T08:15:19.900Z,167.64
2023-05-05T08:16:19.873Z,174.41
2023-05-05T08:17:19.830Z,176.45
2023-05-05T08:18:19.826Z,178.78
2023-05-05T08:19:28.946Z,182.87
2023-05-05T08:20:20.862Z,183.17
2023-05-05T08:21:19.839Z,184.74
2023-05-05T08:22:19.787Z,188.09
2023-05-05T08:23:19.855Z,194.28
2023-05-05T08:24:19.776Z,202.52
2023-05-05T08:25:19.798Z,206.66
2023-05-05T08:26:19.767Z,213.15
2023-05-05T08:27:19.753Z,213.95
2023-05-05T08:28:19.749Z,215.02
2023-05-05T08:29:20.085Z,214.08
2023-05-05T08:30:19.837Z,213.55
2023-05-05T08:31:19.859Z,213.70
2023-05-05T08:32:19.843Z,214.39
2023-05-05T08:33:19.954Z,215.85
2023-05-05T08:34:19.824Z,216.47
2023-05-05T08:35:19.827Z,215.89
2023-05-05T08:36:19.844Z,217.58
2023-05-05T08:37:19.821Z,218.03
2023-05-05T08:38:19.834Z,219.12
2023-05-05T08:39:19.835Z,218.20
2023-05-05T08:40:19.854Z,218.56
2023-05-05T08:41:19.863Z,206.80
2023-05-05T08:42:32.829Z,206.98
2023-05-05T08:43:20.879Z,207.13
2023-05-05T08:44:20.292Z,207.85
2023-05-05T08:45:20.005Z,210.26
2023-05-05T08:46:19.932Z,211.14
2023-05-05T08:47:19.847Z,213.98
2023-05-05T08:48:19.827Z,214.63
2023-05-05T08:49:19.826Z,214.81
2023-05-05T08:50:19.826Z,214.41
2023-05-05T08:51:19.825Z,213.20
2023-05-05T08:52:19.824Z,212.15
2023-05-05T08:53:19.812Z,210.42
2023-05-05T08:54:19.797Z,208.58
2023-05-05T08:55:19.779Z,205.36
2023-05-05T08:56:19.781Z,198.64
2023-05-05T08:57:19.780Z,200.13
2023-05-05T08:58:19.779Z,196.49
2023-05-05T08:59:19.809Z,195.88
2023-05-05T09:00:19.764Z,195.06
2023-05-05T09:01:19.885Z,193.19
2023-05-05T09:02:19.795Z,191.02
2023-05-05T09:03:19.731Z,184.97
2023-05-05T09:04:19.749Z,186.17
2023-05-05T09:05:19.909Z,185.63
2023-05-05T09:06:19.891Z,184.91
2023-05-05T09:07:20.041Z,181.85
2023-05-05T09:08:19.940Z,183.03
2023-05-05T09:09:20.042Z,182.51
2023-05-05T09:10:20.068Z,183.97
2023-05-05T09:11:20.171Z,177.47
2023-05-05T09:12:20.239Z,180.80
2023-05-05T09:13:20.422Z,181.22
2023-05-05T09:14:20.327Z,182.65
2023-05-05T09:15:20.404Z,172.98
2023-05-05T09:16:20.603Z,173.95
2023-05-05T09:17:20.612Z,166.34
2023-05-05T09:18:20.576Z,168.25
2023-05-05T09:19:20.642Z,173.14
2023-05-05T09:20:20.708Z,167.89
2023-05-05T09:21:20.758Z,165.97
2023-05-05T09:22:20.833Z,169.87
2023-05-05T09:23:20.916Z,171.17
2023-05-05T09:24:22.306Z,176.44
2023-05-05T09:25:20.996Z,177.50
2023-05-05T09:26:21.077Z,179.18
2023-05-05T09:27:21.134Z,179.83
2023-05-05T09:28:21.164Z,180.87
2023-05-05T09:29:21.302Z,178.70
2023-05-05T09:30:21.278Z,179.13
2023-05-05T09:31:21.371Z,178.69
2023-05-05T09:32:21.362Z,172.15
2023-05-05T09:33:21.450Z,172.99
2023-05-05T09:34:21.831Z,170.36
2023-05-05T09:35:21.489Z,164.69
2023-05-05T09:36:21.493Z,132.42
2023-05-05T09:37:21.557Z,117.57
2023-05-05T09:38:21.705Z,113.17
2023-05-05T09:39:21.689Z,115.02
2023-05-05T09:40:21.840Z,122.50
2023-05-05T09:41:21.804Z,120.01
2023-05-05T09:42:21.866Z,118.71
2023-05-05T09:43:22.821Z,121.64
2023-05-05T09:44:22.362Z,120.97
2023-05-05T09:45:22.089Z,113.71
2023-05-05T09:46:22.131Z,117.49
2023-05-05T09:47:29.460Z,120.16
2023-05-05T09:48:23.195Z,118.32
2023-05-05T09:49:22.391Z,116.48
2023-05-05T09:50:22.125Z,116.57
2023-05-05T09:51:22.149Z,117.87
2023-05-05T09:52:22.110Z,114.34
2023-05-05T09:53:22.157Z,112.27
2023-05-05T09:54:22.105Z,111.67
2023-05-05T09:55:22.118Z,111.81
2023-05-05T09:56:22.115Z,113.07
2023-05-05T09:57:22.081Z,113.02
2023-05-05T09:58:22.158Z,110.88
2023-05-05T09:59:22.071Z,104.16
2023-05-05T10:00:22.059Z,102.06
2023-05-05T10:01:22.143Z,99.66
2023-05-05T10:02:22.043Z,104.67
2023-05-05T10:03:22.047Z,104.02
2023-05-05T10:04:22.094Z,102.32
2023-05-05T10:05:22.228Z,102.77
2023-05-05T10:06:22.015Z,102.52
2023-05-05T10:07:22.035Z,99.51
2023-05-05T10:08:21.998Z,98.11
2023-05-05T10:09:21.979Z,96.75
2023-05-05T10:10:22.026Z,95.89
2023-05-05T10:11:22.008Z,93.45
2023-05-05T10:12:21.962Z,93.08
2023-05-05T10:13:21.944Z,92.17
2023-05-05T10:14:21.955Z,90.90
2023-05-05T10:15:22.863Z,88.17
2023-05-05T10:16:22.077Z,87.33
2023-05-05T10:17:21.957Z,87.64
2023-05-05T10:18:22.099Z,83.80
2023-05-05T10:19:21.936Z,85.44
2023-05-05T10:20:22.824Z,83.81
2023-05-05T10:21:22.027Z,80.28
2023-05-05T10:22:21.922Z,80.19
2023-05-05T10:23:21.944Z,74.53
2023-05-05T10:24:22.023Z,73.65
2023-05-05T10:25:21.930Z,75.83
2023-05-05T10:26:21.958Z,73.47
2023-05-05T10:27:22.054Z,68.54
2023-05-05T10:28:22.389Z,46.22
2023-05-05T10:29:22.020Z,54.99
2023-05-05T10:30:21.976Z,63.57
2023-05-05T10:31:26.284Z,68.75
2023-05-05T10:32:51.102Z,68.82
2023-05-05T10:34:21.992Z,71.54
2023-05-05T10:35:21.939Z,79.20
2023-05-05T10:36:21.953Z,90.27
2023-05-05T10:37:22.017Z,104.88
2023-05-05T10:38:22.717Z,125.79
2023-05-05T10:39:21.915Z,128.61
2023-05-05T10:40:21.905Z,128.76
2023-05-05T10:41:21.907Z,130.17
2023-05-05T10:42:21.932Z,133.38
2023-05-05T10:43:22.378Z,137.13
2023-05-05T10:44:22.386Z,138.88
2023-05-05T10:45:22.001Z,141.35
2023-05-05T10:46:22.091Z,142.28
2023-05-05T10:47:22.864Z,145.91
2023-05-05T10:48:22.179Z,147.94
2023-05-05T10:49:22.400Z,150.77
2023-05-05T10:50:22.836Z,152.11
2023-05-05T10:51:35.177Z,151.53
2023-05-05T10:52:23.226Z,151.63
2023-05-05T10:53:22.356Z,151.82
2023-05-05T10:54:22.268Z,153.63
2023-05-05T10:55:22.211Z,157.19
2023-05-05T10:56:22.203Z,164.08
2023-05-05T10:57:22.246Z,166.01
2023-05-05T10:58:22.251Z,167.81
2023-05-05T10:59:22.173Z,172.50
2023-05-05T11:00:22.174Z,176.19
2023-05-05T11:01:22.225Z,179.48
2023-05-05T11:02:22.164Z,181.10
2023-05-05T11:03:22.427Z,183.02
2023-05-05T11:04:22.153Z,187.65
2023-05-05T11:05:22.207Z,155.97
2023-05-05T11:06:22.190Z,135.61
2023-05-05T11:07:22.224Z,89.28
2023-05-05T11:08:22.274Z,64.59
2023-05-05T11:09:22.934Z,56.87
2023-05-05T11:10:22.342Z,48.02
2023-05-05T11:11:22.361Z,87.31
2023-05-05T11:12:22.414Z,50.67
2023-05-05T11:13:22.575Z,45.71
2023-05-05T11:14:22.490Z,48.39
2023-05-05T11:15:22.509Z,42.16
2023-05-05T11:16:22.625Z,23.00
2023-05-05T11:17:22.493Z,43.01
2023-05-05T11:18:22.542Z,63.48
2023-05-05T11:19:22.519Z,58.16
2023-05-05T11:20:22.567Z,73.49
2023-05-05T11:21:22.565Z,84.89
2023-05-05T11:22:22.565Z,78.79
2023-05-05T11:23:22.907Z,77.85
2023-05-05T11:24:22.608Z,82.23
2023-05-05T11:25:22.683Z,80.17
2023-05-05T11:26:22.666Z,87.19
2023-05-05T11:27:22.671Z,84.85
2023-05-05T11:28:22.723Z,92.40
2023-05-05T11:29:22.770Z,92.84
2023-05-05T11:30:22.820Z,95.97
2023-05-05T11:31:22.869Z,99.96
2023-05-05T11:32:23.130Z,100.42
2023-05-05T11:33:22.973Z,101.27
2023-05-05T11:34:22.993Z,100.51
2023-05-05T11:35:23.080Z,102.58
2023-05-05T11:36:23.097Z,107.33
2023-05-05T11:37:23.122Z,108.49
2023-05-05T11:38:23.192Z,111.88
2023-05-05T11:39:23.375Z,113.76
2023-05-05T11:40:23.289Z,112.34
2023-05-05T11:41:23.402Z,114.73
2023-05-05T11:42:23.366Z,114.45
2023-05-05T11:43:23.484Z,116.94
2023-05-05T11:44:23.485Z,117.94
2023-05-05T11:45:23.657Z,117.69
2023-05-05T11:46:23.636Z,117.57
2023-05-05T11:47:23.670Z,120.10
2023-05-05T11:48:23.723Z,121.46
2023-05-05T11:49:23.782Z,122.97
2023-05-05T11:50:23.804Z,124.28
2023-05-05T11:51:23.873Z,125.31
2023-05-05T11:52:23.918Z,125.02
2023-05-05T11:53:23.967Z,125.82
2023-05-05T11:54:24.037Z,126.44
2023-05-05T11:55:24.107Z,126.41
2023-05-05T11:56:24.159Z,127.71
2023-05-05T11:57:24.238Z,129.95
2023-05-05T11:58:24.234Z,132.30
2023-05-05T11:59:24.293Z,131.09
2023-05-05T12:00:24.341Z,132.84
2023-05-05T12:01:24.407Z,132.42
2023-05-05T12:02:24.512Z,134.73
2023-05-05T12:03:24.660Z,134.02
2023-05-05T12:04:24.638Z,135.12
2023-05-05T12:05:24.689Z,135.98
2023-05-05T12:06:24.759Z,137.20
2023-05-05T12:07:24.787Z,138.13
2023-05-05T12:08:24.876Z,137.45
2023-05-05T12:09:24.945Z,139.65
2023-05-05T12:10:24.980Z,140.14
2023-05-05T12:11:25.029Z,138.45
2023-05-05T12:12:25.090Z,139.92
2023-05-05T12:13:25.375Z,140.14
2023-05-05T12:14:25.212Z,141.84
2023-05-05T12:15:25.256Z,140.30
2023-05-05T12:16:25.394Z,140.57
2023-05-05T12:17:25.385Z,141.01
2023-05-05T12:18:25.433Z,142.11
2023-05-05T12:19:25.455Z,140.78
2023-05-05T12:20:25.542Z,142.06
2023-05-05T12:21:25.598Z,143.15
2023-05-05T12:22:25.612Z,142.43
2023-05-05T12:23:25.654Z,143.02
2023-05-05T12:24:25.696Z,144.29
2023-05-05T12:25:25.755Z,145.26
2023-05-05T12:26:25.821Z,144.54
2023-05-05T12:27:25.891Z,145.08
2023-05-05T12:28:25.930Z,145.58
2023-05-05T12:29:26.187Z,144.47
2023-05-05T12:30:26.106Z,145.50
2023-05-05T12:31:26.176Z,146.42
2023-05-05T12:32:26.170Z,145.95
2023-05-05T12:33:26.211Z,144.29